Time;durP1;ratioP1;P1;durP2;ratioP2;P2;SDS_P1;SDS_P2;PMS_P1;PMS_P2;Temp;Humidity;BMP_temperature;BMP_pressure;BME280_temperature;BME280_humidity;BME280_pressure;Samples;Min_cycle;Max_cycle;Signal;HPM_P1;HPM_P2
2021/08/24 00:02:05;;;;;;;3.88;2.88;;;;;;;;;;4981322;28;20097;-83
2021/08/24 00:04:32;;;;;;;4.68;2.97;;;;;;;;;;4982517;28;20061;-83
2021/08/24 00:06:59;;;;;;;3.75;3.08;;;;;;;;;;4982069;28;20101;-84
2021/08/24 00:09:26;;;;;;;3.88;3.00;;;;;;;;;;4982890;28;20046;-82
2021/08/24 00:11:52;;;;;;;4.43;3.00;;;;;;;;;;4986637;28;20051;-83
2021/08/24 00:14:19;;;;;;;4.43;2.90;;;;;;;;;;4998407;28;20086;-83
2021/08/24 00:16:48;;;;;;;5.35;2.70;;;;;;;;;;4991620;28;20030;-84
2021/08/24 00:19:15;;;;;;;3.05;2.25;;;;;;;;;;4985876;28;20101;-86
2021/08/24 00:21:42;;;;;;;3.88;2.85;;;;;;;;;;4989795;28;20054;-82
2021/08/24 00:24:12;;;;;;;3.90;2.80;;;;;;;;;;5001364;28;20026;-83
2021/08/24 00:26:39;;;;;;;3.80;2.80;;;;;;;;;;5001582;28;20046;-84
2021/08/24 00:29:06;;;;;;;4.13;3.22;;;;;;;;;;5001609;28;20043;-82
2021/08/24 00:31:33;;;;;;;4.35;3.47;;;;;;;;;;4986855;28;20054;-85
2021/08/24 00:34:01;;;;;;;3.92;2.90;;;;;;;;;;4984488;28;20098;-84
2021/08/24 00:36:28;;;;;;;3.60;2.97;;;;;;;;;;4985305;28;20047;-84
2021/08/24 00:38:55;;;;;;;3.45;2.42;;;;;;;;;;4985073;28;20078;-84
2021/08/24 00:41:22;;;;;;;3.63;2.70;;;;;;;;;;4983610;28;20055;-83
2021/08/24 00:43:49;;;;;;;3.75;2.50;;;;;;;;;;4984001;28;20046;-84
2021/08/24 00:46:28;;;;;;;3.25;2.10;;;;;;;;;;4984738;28;20051;-84
2021/08/24 00:48:56;;;;;;;2.40;1.88;;;;;;;;;;4985231;28;20114;-85
2021/08/24 00:51:26;;;;;;;4.38;2.95;;;;;;;;;;4984254;28;20051;-84
2021/08/24 00:53:54;;;;;;;3.20;2.13;;;;;;;;;;4984186;28;20046;-84
2021/08/24 00:56:22;;;;;;;2.70;1.80;;;;;;;;;;4984092;28;20050;-85
2021/08/24 00:58:49;;;;;;;3.10;2.33;;;;;;;;;;4986114;28;20051;-84
2021/08/24 01:01:16;;;;;;;3.05;2.20;;;;;;;;;;4985358;28;20055;-85
2021/08/24 01:03:47;;;;;;;2.95;1.70;;;;;;;;;;4985708;28;20058;-85
2021/08/24 01:06:23;;;;;;;2.80;1.70;;;;;;;;;;4985796;28;20407;-84
2021/08/24 01:08:58;;;;;;;2.67;1.60;;;;;;;;;;4985588;28;20081;-83
2021/08/24 01:11:32;;;;;;;3.28;1.50;;;;;;;;;;4986178;28;20053;-84
2021/08/24 01:14:10;;;;;;;2.78;2.00;;;;;;;;;;4984593;28;20149;-85
2021/08/24 01:16:41;;;;;;;2.28;1.60;;;;;;;;;;4985438;28;20094;-83
2021/08/24 01:19:38;;;;;;;2.53;1.63;;;;;;;;;;4984504;28;20057;-84
2021/08/24 01:22:44;;;;;;;3.33;1.90;;;;;;;;;;4984964;28;20050;-85
2021/08/24 01:25:18;;;;;;;3.05;1.75;;;;;;;;;;4964121;28;20069;-83
2021/08/24 01:27:54;;;;;;;3.22;1.80;;;;;;;;;;4984543;28;20066;-84
2021/08/24 01:30:35;;;;;;;3.25;1.70;;;;;;;;;;4982514;28;20055;-85
2021/08/24 01:33:09;;;;;;;2.50;1.45;;;;;;;;;;4982488;28;20106;-83
2021/08/24 01:35:55;;;;;;;2.78;1.73;;;;;;;;;;4981746;28;20052;-83
2021/08/24 01:38:25;;;;;;;2.40;1.63;;;;;;;;;;4982342;28;20054;-83
2021/08/24 01:41:01;;;;;;;3.35;1.73;;;;;;;;;;4982678;28;20058;-83
2021/08/24 01:43:40;;;;;;;3.25;1.60;;;;;;;;;;4984285;28;20543;-84
2021/08/24 01:46:15;;;;;;;2.33;1.70;;;;;;;;;;4982936;28;20078;-84
2021/08/24 01:48:48;;;;;;;2.40;1.50;;;;;;;;;;4982924;28;20051;-83
2021/08/24 01:51:20;;;;;;;2.05;1.27;;;;;;;;;;4982398;28;20117;-85
2021/08/24 01:53:52;;;;;;;2.50;1.40;;;;;;;;;;4982156;28;20042;-85
2021/08/24 01:56:21;;;;;;;2.40;1.63;;;;;;;;;;4981460;28;20054;-83
2021/08/24 01:58:52;;;;;;;2.97;1.67;;;;;;;;;;4979926;28;20047;-84
2021/08/24 02:01:24;;;;;;;2.60;1.33;;;;;;;;;;4980139;28;20102;-83
2021/08/24 02:03:55;;;;;;;2.78;1.50;;;;;;;;;;4980977;28;20605;-84
2021/08/24 02:06:29;;;;;;;3.00;1.52;;;;;;;;;;4979659;28;20113;-84
2021/08/24 02:09:01;;;;;;;2.33;1.40;;;;;;;;;;4979163;28;20042;-84
2021/08/24 02:11:32;;;;;;;3.22;1.45;;;;;;;;;;4979386;28;20047;-84
2021/08/24 02:14:03;;;;;;;2.83;1.48;;;;;;;;;;4979590;28;20051;-83
2021/08/24 02:16:31;;;;;;;3.08;1.75;;;;;;;;;;4978644;28;20047;-83
2021/08/24 02:19:11;;;;;;;2.97;1.60;;;;;;;;;;4979512;28;20118;-84
2021/08/24 02:21:44;;;;;;;2.70;1.30;;;;;;;;;;4979249;28;20074;-84
2021/08/24 02:24:15;;;;;;;3.60;1.73;;;;;;;;;;4980227;28;20061;-84
2021/08/24 02:26:43;;;;;;;2.65;1.33;;;;;;;;;;4979343;28;20066;-84
2021/08/24 02:29:10;;;;;;;2.25;1.25;;;;;;;;;;4979959;28;20464;-83
2021/08/24 02:31:44;;;;;;;2.60;1.38;;;;;;;;;;4979428;28;20101;-83
2021/08/24 02:34:17;;;;;;;3.03;1.60;;;;;;;;;;4981695;28;20054;-83
2021/08/24 02:36:52;;;;;;;2.63;1.50;;;;;;;;;;4993072;28;20054;-82
2021/08/24 02:39:25;;;;;;;2.33;1.42;;;;;;;;;;4984896;28;20109;-83
2021/08/24 02:42:00;;;;;;;2.10;1.20;;;;;;;;;;4982622;28;20055;-83
2021/08/24 02:44:36;;;;;;;3.42;1.60;;;;;;;;;;4982682;28;20078;-83
2021/08/24 02:47:05;;;;;;;3.03;1.33;;;;;;;;;;4982815;28;20122;-84
2021/08/24 02:49:33;;;;;;;3.40;1.60;;;;;;;;;;4982661;28;20046;-83
2021/08/24 02:52:05;;;;;;;3.42;1.52;;;;;;;;;;4981554;28;20047;-83
2021/08/24 02:54:33;;;;;;;2.38;1.60;;;;;;;;;;4983032;28;20079;-84
2021/08/24 02:57:01;;;;;;;2.55;1.50;;;;;;;;;;4999084;28;20074;-81
2021/08/24 02:59:29;;;;;;;2.97;1.60;;;;;;;;;;4999126;28;20038;-83
2021/08/24 03:01:56;;;;;;;5.28;1.58;;;;;;;;;;4999155;28;20070;-81
2021/08/24 03:04:23;;;;;;;5.20;1.80;;;;;;;;;;4999070;28;20039;-83
2021/08/24 03:06:54;;;;;;;2.97;1.45;;;;;;;;;;4998721;28;20058;-82
2021/08/24 03:09:25;;;;;;;3.30;1.67;;;;;;;;;;4997209;28;20106;-83
2021/08/24 03:11:58;;;;;;;2.75;1.52;;;;;;;;;;4975311;28;20043;-82
2021/08/24 03:14:33;;;;;;;2.67;1.40;;;;;;;;;;4975265;28;20054;-83
2021/08/24 03:17:04;;;;;;;3.03;1.75;;;;;;;;;;4974800;28;20051;-82
2021/08/24 03:19:33;;;;;;;3.15;1.50;;;;;;;;;;4975560;28;20051;-82
2021/08/24 03:22:02;;;;;;;3.58;2.17;;;;;;;;;;4975102;28;20051;-82
2021/08/24 03:24:31;;;;;;;3.35;1.60;;;;;;;;;;4975914;28;20051;-83
2021/08/24 03:26:58;;;;;;;2.67;1.67;;;;;;;;;;4976607;28;20097;-84
2021/08/24 03:29:25;;;;;;;4.57;2.03;;;;;;;;;;4987559;28;20042;-84
2021/08/24 03:31:54;;;;;;;3.88;1.70;;;;;;;;;;4998086;28;20038;-82
2021/08/24 03:34:22;;;;;;;3.45;1.83;;;;;;;;;;4987638;28;20046;-85
2021/08/24 03:36:49;;;;;;;4.30;1.90;;;;;;;;;;4984515;28;20074;-85
2021/08/24 03:39:16;;;;;;;3.30;1.80;;;;;;;;;;4986323;28;20046;-84
2021/08/24 03:41:44;;;;;;;3.25;1.98;;;;;;;;;;4996803;28;20055;-83
2021/08/24 03:44:11;;;;;;;3.70;2.00;;;;;;;;;;5002867;28;20031;-84
2021/08/24 03:46:38;;;;;;;3.78;2.10;;;;;;;;;;5002604;28;20043;-83
2021/08/24 03:49:05;;;;;;;4.57;2.08;;;;;;;;;;5002629;28;20030;-82
2021/08/24 03:51:32;;;;;;;3.08;1.88;;;;;;;;;;4988881;28;20055;-84
2021/08/24 03:53:58;;;;;;;4.90;1.60;;;;;;;;;;4983046;28;20054;-84
2021/08/24 03:56:25;;;;;;;4.07;1.95;;;;;;;;;;4984260;28;20051;-84
2021/08/24 03:58:53;;;;;;;4.18;1.92;;;;;;;;;;4994461;28;20051;-83
2021/08/24 04:01:20;;;;;;;3.45;2.17;;;;;;;;;;4998462;28;20054;-83
2021/08/24 04:03:47;;;;;;;4.40;1.75;;;;;;;;;;4997500;28;20047;-84
2021/08/24 04:06:14;;;;;;;3.25;2.10;;;;;;;;;;4996773;28;20051;-84
2021/08/24 04:08:41;;;;;;;5.03;2.20;;;;;;;;;;5001063;28;20039;-83
2021/08/24 04:11:09;;;;;;;2.88;1.77;;;;;;;;;;5000592;28;20074;-83
2021/08/24 04:13:35;;;;;;;3.70;2.15;;;;;;;;;;4996070;28;20493;-85
2021/08/24 04:16:07;;;;;;;2.88;1.80;;;;;;;;;;4987174;28;20394;-85
2021/08/24 04:18:34;;;;;;;4.97;2.40;;;;;;;;;;4986255;28;20047;-86
2021/08/24 04:21:01;;;;;;;4.25;2.00;;;;;;;;;;4986696;28;20051;-85
2021/08/24 04:23:29;;;;;;;3.80;2.35;;;;;;;;;;4986343;28;20051;-85
2021/08/24 04:25:59;;;;;;;3.80;2.15;;;;;;;;;;4987682;28;20050;-85
2021/08/24 04:28:27;;;;;;;4.40;2.42;;;;;;;;;;4986146;28;20050;-84
2021/08/24 04:30:54;;;;;;;4.30;2.40;;;;;;;;;;4980706;28;20111;-84
2021/08/24 04:33:23;;;;;;;4.88;3.10;;;;;;;;;;4988871;28;20046;-85
2021/08/24 04:35:51;;;;;;;4.88;2.58;;;;;;;;;;4989424;28;20043;-85
2021/08/24 04:38:19;;;;;;;5.32;2.70;;;;;;;;;;4989947;28;20081;-85
2021/08/24 04:40:46;;;;;;;5.43;2.63;;;;;;;;;;4989627;28;20046;-85
2021/08/24 04:43:14;;;;;;;4.28;2.63;;;;;;;;;;4987799;28;20046;-85
2021/08/24 04:45:41;;;;;;;4.78;2.80;;;;;;;;;;4988959;28;20156;-84
2021/08/24 04:48:08;;;;;;;4.15;2.40;;;;;;;;;;4986819;28;20113;-84
2021/08/24 04:50:37;;;;;;;5.10;2.90;;;;;;;;;;4982977;28;20054;-83
2021/08/24 04:53:04;;;;;;;6.57;2.92;;;;;;;;;;4980521;28;20275;-84
2021/08/24 04:55:32;;;;;;;5.75;3.05;;;;;;;;;;4980625;28;20043;-84
2021/08/24 04:58:02;;;;;;;5.63;2.70;;;;;;;;;;4986196;28;20047;-83
2021/08/24 05:00:29;;;;;;;4.70;3.00;;;;;;;;;;4989446;28;20054;-84
2021/08/24 05:02:55;;;;;;;4.68;2.80;;;;;;;;;;4983239;28;20051;-86
2021/08/24 05:05:22;;;;;;;4.05;2.80;;;;;;;;;;4980915;28;20101;-86
2021/08/24 05:07:51;;;;;;;4.93;2.53;;;;;;;;;;4981718;28;20051;-84
2021/08/24 05:10:19;;;;;;;4.93;3.05;;;;;;;;;;4980155;28;20050;-84
2021/08/24 05:12:46;;;;;;;5.68;3.28;;;;;;;;;;4979565;28;20102;-85
2021/08/24 05:15:12;;;;;;;6.78;2.80;;;;;;;;;;4978776;28;20166;-85
2021/08/24 05:17:39;;;;;;;4.60;2.50;;;;;;;;;;4979869;28;20046;-86
2021/08/24 05:20:08;;;;;;;4.60;2.70;;;;;;;;;;4983113;28;20066;-85
2021/08/24 05:22:36;;;;;;;4.68;2.67;;;;;;;;;;4981151;28;20105;-84
2021/08/24 05:25:05;;;;;;;4.45;2.83;;;;;;;;;;4981653;28;20101;-86
2021/08/24 05:27:32;;;;;;;5.47;3.08;;;;;;;;;;4981093;28;20124;-84
2021/08/24 05:30:01;;;;;;;6.47;2.92;;;;;;;;;;4981660;28;20046;-85
2021/08/24 05:32:29;;;;;;;5.75;2.60;;;;;;;;;;4979711;28;20573;-84
2021/08/24 05:34:56;;;;;;;4.80;2.70;;;;;;;;;;4980041;28;20110;-85
2021/08/24 05:37:23;;;;;;;4.85;2.90;;;;;;;;;;4979129;28;20058;-83
2021/08/24 05:39:50;;;;;;;4.63;2.88;;;;;;;;;;4978902;28;20487;-85
2021/08/24 05:42:18;;;;;;;5.82;3.45;;;;;;;;;;4978776;28;20047;-85
2021/08/24 05:44:46;;;;;;;4.72;2.97;;;;;;;;;;4978424;28;20058;-86
2021/08/24 05:47:13;;;;;;;6.22;3.20;;;;;;;;;;4978720;28;20050;-84
2021/08/24 05:49:40;;;;;;;6.30;3.60;;;;;;;;;;5031707;23;20118;-83
2021/08/24 05:52:10;;;;;;;5.45;3.33;;;;;;;;;;5019111;28;20046;-83
2021/08/24 05:54:37;;;;;;;5.60;3.27;;;;;;;;;;5018754;28;20069;-83
2021/08/24 05:57:05;;;;;;;5.97;3.38;;;;;;;;;;5017354;28;20054;-83
2021/08/24 05:59:34;;;;;;;6.70;3.90;;;;;;;;;;5017936;28;20137;-83
2021/08/24 06:02:00;;;;;;;5.72;3.60;;;;;;;;;;5017304;28;20067;-84
2021/08/24 06:04:27;;;;;;;5.95;3.40;;;;;;;;;;5019296;28;20049;-84
2021/08/24 06:06:54;;;;;;;6.25;4.00;;;;;;;;;;5019693;28;20117;-83
2021/08/24 06:09:21;;;;;;;7.00;4.05;;;;;;;;;;5020744;28;20108;-83
2021/08/24 06:11:51;;;;;;;7.22;4.47;;;;;;;;;;5020672;28;20593;-85
2021/08/24 06:14:19;;;;;;;5.30;3.70;;;;;;;;;;5023392;28;20080;-83
2021/08/24 06:16:54;;;;;;;6.80;4.47;;;;;;;;;;5026745;28;20049;-83
2021/08/24 06:19:21;;;;;;;6.07;4.45;;;;;;;;;;5026791;28;20065;-83
2021/08/24 06:21:49;;;;;;;5.85;3.90;;;;;;;;;;5020644;28;20569;-82
2021/08/24 06:24:16;;;;;;;7.47;4.82;;;;;;;;;;5020187;28;20108;-83
2021/08/24 06:26:43;;;;;;;5.38;3.88;;;;;;;;;;5020197;28;20438;-83
2021/08/24 06:29:10;;;;;;;6.57;4.40;;;;;;;;;;5019604;28;20587;-82
2021/08/24 06:31:40;;;;;;;5.43;4.60;;;;;;;;;;5019852;28;20046;-82
2021/08/24 06:34:10;;;;;;;8.20;5.57;;;;;;;;;;5020572;28;20421;-82
2021/08/24 06:36:38;;;;;;;7.15;5.45;;;;;;;;;;5019316;28;20143;-83
2021/08/24 06:39:06;;;;;;;10.13;8.25;;;;;;;;;;5017618;28;20046;-84
2021/08/24 06:41:33;;;;;;;8.95;6.72;;;;;;;;;;5015896;28;20499;-84
2021/08/24 06:44:00;;;;;;;7.20;4.82;;;;;;;;;;5014419;28;20474;-84
2021/08/24 06:46:27;;;;;;;6.45;4.50;;;;;;;;;;5014850;28;20068;-84
2021/08/24 06:49:00;;;;;;;6.53;4.78;;;;;;;;;;5014925;28;20053;-83
2021/08/24 06:51:28;;;;;;;6.85;4.78;;;;;;;;;;5015226;28;20081;-83
2021/08/24 06:53:55;;;;;;;6.47;4.50;;;;;;;;;;5015179;28;20046;-84
2021/08/24 06:56:21;;;;;;;6.53;4.88;;;;;;;;;;5014234;28;20049;-84
2021/08/24 06:58:48;;;;;;;6.03;4.68;;;;;;;;;;5014930;28;20049;-82
2021/08/24 07:01:16;;;;;;;6.03;4.43;;;;;;;;;;5016775;28;20129;-84
2021/08/24 07:03:43;;;;;;;6.35;4.72;;;;;;;;;;5016193;28;20050;-84
2021/08/24 07:06:11;;;;;;;6.53;4.80;;;;;;;;;;5014774;28;20092;-84
2021/08/24 07:08:40;;;;;;;7.00;4.78;;;;;;;;;;5014787;28;20049;-84
2021/08/24 07:11:06;;;;;;;8.02;6.10;;;;;;;;;;5015267;28;20045;-85
2021/08/24 07:13:33;;;;;;;8.43;7.35;;;;;;;;;;4987213;28;20105;-83
2021/08/24 07:16:06;;;;;;;7.43;4.90;;;;;;;;;;4973988;28;20166;-84
2021/08/24 07:18:33;;;;;;;6.75;4.05;;;;;;;;;;4974158;28;20113;-84
2021/08/24 07:21:03;;;;;;;8.38;4.53;;;;;;;;;;4974927;28;20047;-86
2021/08/24 07:23:30;;;;;;;8.25;5.65;;;;;;;;;;4974735;28;20106;-85
2021/08/24 07:25:58;;;;;;;7.55;4.10;;;;;;;;;;4974269;28;20086;-85
2021/08/24 07:28:25;;;;;;;4.75;3.25;;;;;;;;;;4982199;28;20043;-85
2021/08/24 07:30:52;;;;;;;5.25;3.83;;;;;;;;;;4976473;28;20051;-84
2021/08/24 07:33:25;;;;;;;5.55;4.35;;;;;;;;;;4974754;28;20079;-85
2021/08/24 07:35:52;;;;;;;5.53;3.83;;;;;;;;;;4974086;28;20082;-84
2021/08/24 07:38:21;;;;;;;5.32;3.67;;;;;;;;;;4974174;28;20121;-85
2021/08/24 07:40:49;;;;;;;7.53;4.65;;;;;;;;;;4973990;28;20511;-85
2021/08/24 07:43:18;;;;;;;5.45;4.05;;;;;;;;;;4977720;28;20542;-85
2021/08/24 07:45:46;;;;;;;6.95;6.03;;;;;;;;;;4992512;28;20050;-84
2021/08/24 07:48:13;;;;;;;5.93;4.38;;;;;;;;;;4994312;28;20065;-84
2021/08/24 07:50:43;;;;;;;5.30;4.30;;;;;;;;;;5000736;28;20613;-83
2021/08/24 07:53:10;;;;;;;6.15;4.25;;;;;;;;;;4995646;28;20113;-84
2021/08/24 07:55:37;;;;;;;7.38;5.50;;;;;;;;;;4995315;28;20105;-83
2021/08/24 07:58:04;;;;;;;6.80;4.65;;;;;;;;;;4995002;28;20047;-82
2021/08/24 08:00:33;;;;;;;6.63;5.40;;;;;;;;;;4995123;28;20046;-83
2021/08/24 08:02:59;;;;;;;6.03;4.97;;;;;;;;;;4982281;28;20117;-82
2021/08/24 08:05:26;;;;;;;6.38;4.40;;;;;;;;;;4977989;28;20055;-82
2021/08/24 08:07:55;;;;;;;7.00;5.10;;;;;;;;;;4998347;28;20066;-84
2021/08/24 08:10:22;;;;;;;6.30;4.32;;;;;;;;;;4985224;28;20059;-82
2021/08/24 08:12:49;;;;;;;7.70;5.40;;;;;;;;;;4975190;28;20047;-82
2021/08/24 08:15:18;;;;;;;6.85;5.18;;;;;;;;;;4975484;28;20551;-82
2021/08/24 08:17:46;;;;;;;6.28;5.20;;;;;;;;;;4976792;28;20118;-82
2021/08/24 08:20:14;;;;;;;8.23;6.20;;;;;;;;;;4976267;28;20075;-83
2021/08/24 08:22:43;;;;;;;8.32;5.43;;;;;;;;;;4976154;28;20050;-83
2021/08/24 08:25:12;;;;;;;6.22;5.38;;;;;;;;;;4976201;28;20090;-82
2021/08/24 08:27:39;;;;;;;5.32;3.95;;;;;;;;;;4979701;28;20050;-83
2021/08/24 08:30:08;;;;;;;7.43;4.35;;;;;;;;;;4979848;28;20046;-84
2021/08/24 08:32:43;;;;;;;6.90;5.68;;;;;;;;;;4979118;28;20622;-82
2021/08/24 08:35:18;;;;;;;9.13;7.82;;;;;;;;;;4979208;28;20047;-82
2021/08/24 08:37:47;;;;;;;7.13;5.82;;;;;;;;;;4980751;28;20050;-83
2021/08/24 08:40:16;;;;;;;7.57;6.20;;;;;;;;;;4981975;28;20077;-84
2021/08/24 08:42:52;;;;;;;7.07;5.65;;;;;;;;;;4980996;28;20046;-82
2021/08/24 08:45:24;;;;;;;11.70;10.60;;;;;;;;;;4980454;28;20094;-82
2021/08/24 08:48:05;;;;;;;6.70;5.30;;;;;;;;;;4980494;28;20122;-82
2021/08/24 08:50:49;;;;;;;7.13;5.88;;;;;;;;;;4980531;28;20106;-88
2021/08/24 08:53:37;;;;;;;6.70;5.10;;;;;;;;;;4980905;28;20046;-84
2021/08/24 08:56:17;;;;;;;10.70;5.22;;;;;;;;;;4981152;28;20098;-90
2021/08/24 08:58:58;;;;;;;6.90;5.40;;;;;;;;;;4978171;28;20051;-89
2021/08/24 09:01:47;;;;;;;7.75;5.00;;;;;;;;;;4977375;28;20496;-88
2021/08/24 09:04:17;;;;;;;7.32;5.15;;;;;;;;;;4979759;28;20055;-83
2021/08/24 09:07:18;;;;;;;6.43;5.07;;;;;;;;;;4978167;28;20179;-85
2021/08/24 09:09:46;;;;;;;6.50;4.70;;;;;;;;;;4975483;28;20096;-85
2021/08/24 09:12:13;;;;;;;5.95;4.55;;;;;;;;;;4975762;28;20070;-85
2021/08/24 09:14:44;;;;;;;7.32;4.65;;;;;;;;;;4976528;28;20043;-84
2021/08/24 09:17:16;;;;;;;;;;;;;;;;;;4976202;28;20050;-84
2021/08/24 09:19:49;;;;;;;8.00;7.20;;;;;;;;;;4976443;28;19922;-85
2021/08/24 09:22:18;;;;;;;6.32;4.57;;;;;;;;;;4976736;28;20054;-85
2021/08/24 09:24:46;;;;;;;6.63;5.75;;;;;;;;;;4977472;28;20055;-83
2021/08/24 09:27:21;;;;;;;7.07;5.00;;;;;;;;;;4978287;28;20121;-85
2021/08/24 09:29:51;;;;;;;5.72;4.60;;;;;;;;;;4980073;28;20146;-86
2021/08/24 09:32:20;;;;;;;5.90;4.18;;;;;;;;;;4981961;28;20057;-85
2021/08/24 09:34:55;;;;;;;6.43;4.03;;;;;;;;;;4981306;28;20047;-84
2021/08/24 09:37:24;;;;;;;7.60;4.45;;;;;;;;;;4979884;28;20047;-85
2021/08/24 09:39:57;;;;;;;4.60;3.55;;;;;;;;;;4981011;28;20130;-85
2021/08/24 09:42:29;;;;;;;4.95;3.80;;;;;;;;;;4980096;28;20046;-84
2021/08/24 09:45:00;;;;;;;4.90;3.72;;;;;;;;;;4980452;28;20049;-85
2021/08/24 09:47:27;;;;;;;;;;;;;;;;;;4981557;28;20058;-85
2021/08/24 09:50:00;;;;;;;6.32;4.78;;;;;;;;;;4979232;28;19922;-85
2021/08/24 09:52:31;;;;;;;6.75;4.60;;;;;;;;;;4978874;28;20047;-85
2021/08/24 09:55:00;;;;;;;7.85;4.43;;;;;;;;;;4980279;28;20070;-85
2021/08/24 09:57:30;;;;;;;4.90;3.22;;;;;;;;;;4979710;28;20073;-85
2021/08/24 10:00:01;;;;;;;8.38;3.78;;;;;;;;;;4978763;28;20397;-85
2021/08/24 10:02:38;;;;;;;7.55;4.05;;;;;;;;;;4976592;28;20097;-85
2021/08/24 10:05:06;;;;;;;6.15;3.42;;;;;;;;;;4979653;28;20043;-86
2021/08/24 10:07:38;;;;;;;4.97;3.40;;;;;;;;;;4978070;28;20613;-85
2021/08/24 10:10:24;;;;;;;5.68;3.88;;;;;;;;;;4983321;28;20050;-89
2021/08/24 10:12:58;;;;;;;4.82;3.25;;;;;;;;;;4982585;28;20050;-88
2021/08/24 10:15:45;;;;;;;4.60;3.65;;;;;;;;;;4997376;28;20346;-87
2021/08/24 10:18:14;;;;;;;7.35;6.60;;;;;;;;;;4998466;28;20069;-86
2021/08/24 10:21:08;;;;;;;7.82;6.45;;;;;;;;;;4998983;28;20049;-87
2021/08/24 10:26:46;;;;;;;15.80;8.88;;;;;;;;;;4997348;28;20058;-87
2021/08/24 10:29:33;;;;;;;12.82;6.57;;;;;;;;;;5002778;28;20105;-89
2021/08/24 10:32:23;;;;;;;16.63;10.93;;;;;;;;;;5017281;28;20061;-90
2021/08/24 10:34:53;;;;;;;17.42;9.98;;;;;;;;;;5013748;28;20125;-86
2021/08/24 10:41:47;;;;;;;13.00;5.70;;;;;;;;;;4979945;28;20049;-89
2021/08/24 10:44:25;;;;;;;8.10;5.03;;;;;;;;;;4995408;28;20046;-84
2021/08/24 10:47:02;;;;;;;5.95;3.50;;;;;;;;;;4995007;28;20046;-86
2021/08/24 10:49:29;;;;;;;6.95;3.70;;;;;;;;;;4994377;28;20106;-85
2021/08/24 10:52:05;;;;;;;7.93;3.38;;;;;;;;;;4994559;28;20042;-84
2021/08/24 10:55:03;;;;;;;3.88;2.85;;;;;;;;;;4995162;28;20046;-85
2021/08/24 10:57:46;;;;;;;6.03;4.22;;;;;;;;;;4995187;28;20079;-85
2021/08/24 11:00:26;;;;;;;6.13;3.55;;;;;;;;;;4985250;28;20088;-85
2021/08/24 11:03:11;;;;;;;5.20;3.55;;;;;;;;;;4995462;28;20106;-86
2021/08/24 11:05:48;;;;;;;4.53;2.45;;;;;;;;;;4999605;28;20100;-86
2021/08/24 11:08:32;;;;;;;6.28;4.03;;;;;;;;;;4993883;28;20054;-86
2021/08/24 11:11:13;;;;;;;3.90;2.70;;;;;;;;;;4991980;28;20494;-85
2021/08/24 11:13:52;;;;;;;6.38;2.60;;;;;;;;;;4998166;28;20047;-85
2021/08/24 11:16:33;;;;;;;4.88;3.03;;;;;;;;;;4997112;28;20153;-86
2021/08/24 11:19:14;;;;;;;4.63;3.10;;;;;;;;;;4999103;28;20050;-86
2021/08/24 11:21:44;;;;;;;;;;;;;;;;;;4997094;28;20042;-84
2021/08/24 11:24:23;;;;;;;6.38;3.05;;;;;;;;;;4999829;28;19922;-84
2021/08/24 11:27:03;;;;;;;4.15;2.60;;;;;;;;;;4995831;28;20392;-84
2021/08/24 11:29:36;;;;;;;4.55;3.30;;;;;;;;;;4995153;28;20058;-84
2021/08/24 11:32:17;;;;;;;3.50;2.25;;;;;;;;;;4994326;28;20050;-84
2021/08/24 11:34:50;;;;;;;3.83;2.42;;;;;;;;;;4994183;28;20054;-84
2021/08/24 11:37:20;;;;;;;5.75;3.40;;;;;;;;;;4993554;28;20089;-85
2021/08/24 11:39:55;;;;;;;5.35;3.35;;;;;;;;;;4991924;28;20050;-85
2021/08/24 11:42:29;;;;;;;4.50;3.17;;;;;;;;;;4974145;28;20043;-85
2021/08/24 11:44:58;;;;;;;5.18;2.50;;;;;;;;;;4978068;28;20065;-85
2021/08/24 11:47:32;;;;;;;3.88;2.97;;;;;;;;;;4977750;28;20051;-86
2021/08/24 11:50:06;;;;;;;3.65;2.55;;;;;;;;;;4977870;28;20090;-85
2021/08/24 11:52:41;;;;;;;4.40;2.67;;;;;;;;;;4978725;28;20471;-84
2021/08/24 11:55:14;;;;;;;5.15;2.67;;;;;;;;;;4980099;28;20046;-85
2021/08/24 11:57:47;;;;;;;5.60;3.38;;;;;;;;;;4980066;28;20079;-85
2021/08/24 12:00:16;;;;;;;4.85;2.80;;;;;;;;;;4979197;28;20054;-85
2021/08/24 12:02:48;;;;;;;3.80;2.42;;;;;;;;;;4982193;28;20047;-85
2021/08/24 12:05:20;;;;;;;5.68;2.88;;;;;;;;;;4981091;28;20051;-86
2021/08/24 12:07:56;;;;;;;5.72;4.30;;;;;;;;;;4978234;28;20747;-85
2021/08/24 12:10:27;;;;;;;5.53;2.97;;;;;;;;;;4976687;28;20055;-85
2021/08/24 12:12:58;;;;;;;5.70;3.17;;;;;;;;;;4976980;28;20418;-85
2021/08/24 12:15:41;;;;;;;4.15;2.97;;;;;;;;;;4976826;28;20046;-86
2021/08/24 12:18:21;;;;;;;5.30;2.92;;;;;;;;;;4978121;28;20058;-86
2021/08/24 12:20:50;;;;;;;;;;;;;;;;;;4978965;28;20125;-85
2021/08/24 12:23:36;;;;;;;4.00;2.60;;;;;;;;;;4978117;28;19922;-86
2021/08/24 12:26:22;;;;;;;3.55;2.30;;;;;;;;;;4978135;28;20105;-85
2021/08/24 12:28:50;;;;;;;4.90;2.42;;;;;;;;;;4979774;28;20039;-85
2021/08/24 12:31:40;;;;;;;4.28;2.30;;;;;;;;;;4981530;28;20408;-84
2021/08/24 12:35:05;;;;;;;4.35;2.33;;;;;;;;;;4990608;28;20570;-86
2021/08/24 12:37:51;;;;;;;4.47;2.40;;;;;;;;;;5000887;28;20140;-87
2021/08/24 12:40:48;;;;;;;3.25;2.08;;;;;;;;;;5021903;23;20493;-83
2021/08/24 12:43:25;;;;;;;5.68;3.95;;;;;;;;;;5000485;28;20098;-86
2021/08/24 12:46:25;;;;;;;4.03;2.88;;;;;;;;;;5003235;28;20458;-84
2021/08/24 12:49:32;;;;;;;5.03;2.50;;;;;;;;;;5005128;28;20050;-84
2021/08/24 12:52:07;;;;;;;4.85;3.50;;;;;;;;;;4977200;28;20054;-86
2021/08/24 12:54:47;;;;;;;4.10;2.85;;;;;;;;;;4983209;28;20616;-86
2021/08/24 12:57:18;;;;;;;4.57;2.50;;;;;;;;;;4982707;28;20109;-85
2021/08/24 12:59:45;;;;;;;;;;;;;;;;;;4983910;28;20067;-84
2021/08/24 13:02:23;;;;;;;2.92;2.10;;;;;;;;;;4982641;28;19922;-84
2021/08/24 13:04:53;;;;;;;3.42;2.30;;;;;;;;;;4983494;28;20455;-86
2021/08/24 13:07:31;;;;;;;3.85;2.40;;;;;;;;;;4982132;28;20086;-85
2021/08/24 13:10:11;;;;;;;5.25;2.50;;;;;;;;;;4983406;28;20097;-85
2021/08/24 13:12:39;;;;;;;9.13;3.90;;;;;;;;;;4981869;28;20138;-86
2021/08/24 13:15:40;;;;;;;4.38;2.38;;;;;;;;;;4981246;28;20043;-85
2021/08/24 13:18:14;;;;;;;4.80;1.83;;;;;;;;;;4949936;28;20106;-85
2021/08/24 13:20:44;;;;;;;3.63;1.90;;;;;;;;;;4970040;28;20055;-83
2021/08/24 13:23:22;;;;;;;2.63;1.60;;;;;;;;;;4999984;28;20058;-86
2021/08/24 13:25:54;;;;;;;3.00;1.60;;;;;;;;;;5000023;28;20066;-86
2021/08/24 13:28:25;;;;;;;3.35;1.85;;;;;;;;;;5000461;28;20078;-86
2021/08/24 13:30:58;;;;;;;2.67;1.70;;;;;;;;;;5000112;28;20071;-85
2021/08/24 13:33:32;;;;;;;3.72;2.00;;;;;;;;;;4998648;28;20046;-85
2021/08/24 13:36:04;;;;;;;2.95;1.77;;;;;;;;;;4997366;28;20060;-85
2021/08/24 13:38:33;;;;;;;3.88;2.03;;;;;;;;;;4979864;28;20101;-84
2021/08/24 13:41:10;;;;;;;3.42;1.90;;;;;;;;;;4981237;28;20042;-84
2021/08/24 13:43:42;;;;;;;4.13;1.67;;;;;;;;;;4980034;28;20058;-84
2021/08/24 13:46:09;;;;;;;3.28;1.95;;;;;;;;;;4982568;28;20083;-84
2021/08/24 13:48:37;;;;;;;5.60;2.33;;;;;;;;;;4985733;28;20058;-84
2021/08/24 13:51:07;;;;;;;3.75;2.40;;;;;;;;;;4981403;28;20062;-84
2021/08/24 13:53:37;;;;;;;3.20;2.00;;;;;;;;;;4983888;28;20047;-85
2021/08/24 13:56:07;;;;;;;3.38;2.03;;;;;;;;;;4981372;28;20050;-84
2021/08/24 13:58:35;;;;;;;;;;;;;;;;;;4982542;28;20456;-81
2021/08/24 14:01:14;;;;;;;3.17;1.83;;;;;;;;;;4986549;28;20302;-85
2021/08/24 14:03:44;;;;;;;3.90;1.92;;;;;;;;;;4996170;28;20054;-84
2021/08/24 14:06:13;;;;;;;5.00;2.38;;;;;;;;;;4999691;28;20157;-85
2021/08/24 14:08:44;;;;;;;4.40;1.90;;;;;;;;;;4995129;28;20219;-85
2021/08/24 14:11:22;;;;;;;3.60;2.28;;;;;;;;;;4981784;28;20051;-85
2021/08/24 14:13:51;;;;;;;3.70;2.03;;;;;;;;;;4979914;28;20047;-85
2021/08/24 14:16:27;;;;;;;4.53;2.45;;;;;;;;;;4979684;28;20054;-85
2021/08/24 14:18:57;;;;;;;3.53;2.10;;;;;;;;;;4980441;28;20484;-85
2021/08/24 14:21:26;;;;;;;3.38;2.10;;;;;;;;;;4981314;28;20046;-85
2021/08/24 14:23:58;;;;;;;3.00;2.10;;;;;;;;;;4981170;28;20047;-85
2021/08/24 14:26:30;;;;;;;3.75;2.55;;;;;;;;;;4980411;28;20117;-85
2021/08/24 14:29:00;;;;;;;3.50;2.65;;;;;;;;;;4980312;28;20066;-85
2021/08/24 14:31:33;;;;;;;4.15;2.58;;;;;;;;;;4980276;28;20050;-85
2021/08/24 14:34:17;;;;;;;5.43;3.50;;;;;;;;;;4980553;28;20054;-85
2021/08/24 14:36:54;;;;;;;5.05;3.30;;;;;;;;;;4981747;28;20054;-84
2021/08/24 14:39:24;;;;;;;4.82;3.72;;;;;;;;;;4981373;28;20070;-85
2021/08/24 14:42:02;;;;;;;4.55;3.15;;;;;;;;;;4987607;28;20078;-84
2021/08/24 14:44:45;;;;;;;4.05;2.95;;;;;;;;;;4986122;28;20053;-85
2021/08/24 14:47:30;;;;;;;4.53;3.28;;;;;;;;;;4981701;28;20098;-85
2021/08/24 14:49:59;;;;;;;4.97;3.30;;;;;;;;;;4980821;28;20069;-85
2021/08/24 14:52:31;;;;;;;5.63;4.07;;;;;;;;;;4981645;28;20046;-83
2021/08/24 14:55:02;;;;;;;5.60;3.60;;;;;;;;;;4977736;28;20078;-83
2021/08/24 14:57:52;;;;;;;5.00;3.63;;;;;;;;;;4977887;28;20059;-85
2021/08/24 15:00:44;;;;;;;10.93;7.20;;;;;;;;;;4994713;28;20042;-84
2021/08/24 15:03:29;;;;;;;5.65;3.63;;;;;;;;;;4999652;28;20453;-84
2021/08/24 15:05:58;;;;;;;5.78;4.15;;;;;;;;;;4998515;28;20051;-84
2021/08/24 15:08:40;;;;;;;5.10;3.70;;;;;;;;;;4995384;28;20054;-84
2021/08/24 15:11:17;;;;;;;4.60;3.35;;;;;;;;;;4992570;28;20050;-85
2021/08/24 15:13:54;;;;;;;4.53;3.63;;;;;;;;;;4974903;28;20054;-83
2021/08/24 15:16:30;;;;;;;6.85;6.03;;;;;;;;;;4974673;28;20047;-85
2021/08/24 15:19:01;;;;;;;4.82;3.70;;;;;;;;;;4976296;28;20161;-83
2021/08/24 15:21:32;;;;;;;4.95;3.65;;;;;;;;;;4995220;28;20043;-85
2021/08/24 15:24:08;;;;;;;8.75;7.05;;;;;;;;;;4980442;28;20042;-86